Time;durP1;ratioP1;P1;durP2;ratioP2;P2;SDS_P1;SDS_P2;PMS_P1;PMS_P2;Temp;Humidity;BMP_temperature;BMP_pressure;BME280_temperature;BME280_humidity;BME280_pressure;Samples;Min_cycle;Max_cycle;Signal;HPM_P1;HPM_P2
2021/03/01 05:57:21;;;;;;;24.45;11.55;;;;;;;;;;5038348;27;20963;-78
2021/03/01 05:59:47;;;;;;;28.10;11.65;;;;;;;;;;5025689;28;20041;-75
2021/03/01 06:02:13;;;;;;;26.52;12.73;;;;;;;;;;5009860;28;20121;-77
2021/03/01 06:04:39;;;;;;;28.77;11.82;;;;;;;;;;5009393;28;20065;-77
2021/03/01 06:07:05;;;;;;;36.85;11.63;;;;;;;;;;5004492;28;20117;-77
2021/03/01 06:09:31;;;;;;;21.33;11.32;;;;;;;;;;5007855;28;20033;-77
2021/03/01 06:11:57;;;;;;;23.85;11.73;;;;;;;;;;5008801;28;20459;-77
2021/03/01 06:14:23;;;;;;;19.95;10.75;;;;;;;;;;5006828;28;20418;-77
2021/03/01 06:17:07;;;;;;;26.15;11.68;;;;;;;;;;5010021;28;20078;-77
2021/03/01 06:20:03;;;;;;;21.90;10.30;;;;;;;;;;5011981;28;20060;-77
2021/03/01 06:22:42;;;;;;;23.48;10.45;;;;;;;;;;5022303;28;20155;-77
2021/03/01 06:25:09;;;;;;;21.52;10.68;;;;;;;;;;5012216;28;20029;-77
2021/03/01 06:27:55;;;;;;;23.77;12.35;;;;;;;;;;5017910;28;20025;-77
2021/03/01 06:30:23;;;;;;;19.52;9.73;;;;;;;;;;5014613;28;20070;-77
2021/03/01 06:33:07;;;;;;;20.58;10.15;;;;;;;;;;5015528;28;20413;-77
2021/03/01 06:35:46;;;;;;;21.35;10.98;;;;;;;;;;5009089;28;20499;-77
2021/03/01 06:38:12;;;;;;;23.35;11.00;;;;;;;;;;5011395;27;20117;-77
2021/03/01 06:40:37;;;;;;;23.58;11.18;;;;;;;;;;5012114;28;20078;-77
2021/03/01 06:43:10;;;;;;;18.70;11.15;;;;;;;;;;5009950;28;20112;-77
2021/03/01 06:45:35;;;;;;;20.20;11.40;;;;;;;;;;5019522;28;20425;-76
2021/03/01 06:48:01;;;;;;;23.92;11.45;;;;;;;;;;5004782;27;20026;-78
2021/03/01 06:50:33;;;;;;;22.58;13.15;;;;;;;;;;5014143;28;20065;-77
2021/03/01 06:53:02;;;;;;;24.02;13.40;;;;;;;;;;5009042;28;20026;-77
2021/03/01 06:55:28;;;;;;;22.52;13.55;;;;;;;;;;5012138;28;20030;-77
2021/03/01 06:57:54;;;;;;;29.45;13.60;;;;;;;;;;4993175;28;20038;-77
2021/03/01 07:00:27;;;;;;;24.35;12.27;;;;;;;;;;5000446;28;20037;-77
2021/03/01 07:02:53;;;;;;;27.05;13.15;;;;;;;;;;5009610;28;20041;-77
2021/03/01 07:05:19;;;;;;;26.17;12.98;;;;;;;;;;4996829;28;20499;-77
2021/03/01 07:07:45;;;;;;;23.02;12.73;;;;;;;;;;4997433;28;20112;-77
2021/03/01 07:10:11;;;;;;;28.95;14.40;;;;;;;;;;5002961;28;20022;-77
2021/03/01 07:12:41;;;;;;;28.95;13.88;;;;;;;;;;5001588;28;20015;-77
2021/03/01 07:15:10;;;;;;;30.30;16.27;;;;;;;;;;5003981;28;20030;-77
2021/03/01 07:17:40;;;;;;;24.58;13.77;;;;;;;;;;5006574;28;20072;-77
2021/03/01 07:20:07;;;;;;;25.90;13.15;;;;;;;;;;5001076;28;20017;-77
2021/03/01 07:22:34;;;;;;;24.90;14.43;;;;;;;;;;4996849;28;20409;-77
2021/03/01 07:25:00;;;;;;;27.85;13.82;;;;;;;;;;4999030;28;20026;-77
2021/03/01 07:27:27;;;;;;;26.63;14.15;;;;;;;;;;4994187;28;20049;-77
2021/03/01 07:29:56;;;;;;;25.52;13.45;;;;;;;;;;5005680;28;20499;-77
2021/03/01 07:32:21;;;;;;;26.05;14.15;;;;;;;;;;4994162;28;20050;-77
2021/03/01 07:34:47;;;;;;;27.77;16.02;;;;;;;;;;5005308;28;20069;-77
2021/03/01 07:37:13;;;;;;;32.47;17.63;;;;;;;;;;4994907;28;20034;-77
2021/03/01 07:41:58;;;;;;;26.95;14.80;;;;;;;;;;5047328;28;20363;-77
2021/03/01 07:44:24;;;;;;;25.60;14.80;;;;;;;;;;5038546;28;20060;-77
2021/03/01 07:46:50;;;;;;;29.45;13.85;;;;;;;;;;5040157;28;20480;-77
2021/03/01 07:49:36;;;;;;;24.95;13.15;;;;;;;;;;5027027;28;20116;-77
2021/03/01 07:52:01;;;;;;;25.73;13.88;;;;;;;;;;5030716;28;20025;-77
2021/03/01 07:54:46;;;;;;;27.38;17.48;;;;;;;;;;5033095;28;20088;-77
2021/03/01 07:57:11;;;;;;;28.15;16.13;;;;;;;;;;5033181;28;20088;-77
2021/03/01 07:59:37;;;;;;;36.10;18.90;;;;;;;;;;5032325;28;20408;-77
2021/03/01 08:02:09;;;;;;;32.22;16.58;;;;;;;;;;5034247;28;20388;-77
2021/03/01 08:04:35;;;;;;;26.05;16.80;;;;;;;;;;5030205;28;20025;-77
2021/03/01 08:07:01;;;;;;;32.92;18.35;;;;;;;;;;5026125;28;20440;-78
2021/03/01 08:09:43;;;;;;;28.85;16.60;;;;;;;;;;5026986;28;20494;-77
2021/03/01 08:12:09;;;;;;;35.42;19.40;;;;;;;;;;5027429;28;20029;-77
2021/03/01 08:14:53;;;;;;;32.63;19.23;;;;;;;;;;5025675;28;20024;-78
2021/03/01 08:17:28;;;;;;;28.95;18.38;;;;;;;;;;5033268;28;20025;-78
2021/03/01 08:19:58;;;;;;;31.00;16.95;;;;;;;;;;5022556;28;20037;-78
2021/03/01 08:22:27;;;;;;;27.23;13.32;;;;;;;;;;5031130;28;20117;-77
2021/03/01 08:24:53;;;;;;;18.25;11.15;;;;;;;;;;5036180;28;20056;-78
2021/03/01 08:27:25;;;;;;;17.88;10.02;;;;;;;;;;5027707;28;20079;-77
2021/03/01 08:30:09;;;;;;;20.55;10.75;;;;;;;;;;5028183;28;20067;-78
2021/03/01 08:32:35;;;;;;;16.80;8.35;;;;;;;;;;5026239;28;20056;-77
2021/03/01 08:35:20;;;;;;;18.95;8.57;;;;;;;;;;5031154;28;20029;-77
2021/03/01 08:37:46;;;;;;;19.08;9.57;;;;;;;;;;5033685;28;20052;-78
2021/03/01 08:40:18;;;;;;;15.25;8.25;;;;;;;;;;5029507;28;20113;-78
2021/03/01 08:42:45;;;;;;;14.70;8.85;;;;;;;;;;5028534;28;20047;-78
2021/03/01 08:45:11;;;;;;;36.50;10.10;;;;;;;;;;5030554;28;20049;-77
2021/03/01 08:47:50;;;;;;;14.38;8.38;;;;;;;;;;5029844;28;20037;-78
2021/03/01 08:52:33;;;;;;;17.02;9.25;;;;;;;;;;5061828;28;21239;-78
2021/03/01 08:55:06;;;;;;;14.18;8.50;;;;;;;;;;5056463;28;20029;-78
2021/03/01 08:57:31;;;;;;;17.77;10.10;;;;;;;;;;5051658;28;20032;-78
2021/03/01 09:00:09;;;;;;;13.23;8.43;;;;;;;;;;5051262;28;20029;-77
2021/03/01 09:02:35;;;;;;;14.80;8.60;;;;;;;;;;5050411;28;20059;-76
2021/03/01 09:05:07;;;;;;;16.67;9.23;;;;;;;;;;5049924;28;20029;-77
2021/03/01 09:07:45;;;;;;;12.52;7.03;;;;;;;;;;5052875;28;20041;-77
2021/03/01 09:10:11;;;;;;;15.20;9.00;;;;;;;;;;5057873;28;20025;-78
2021/03/01 09:12:37;;;;;;;14.85;8.02;;;;;;;;;;5061091;28;20060;-78
2021/03/01 09:15:04;;;;;;;12.73;7.72;;;;;;;;;;5061707;28;20024;-78
2021/03/01 09:17:29;;;;;;;14.63;8.25;;;;;;;;;;5058734;28;20021;-78
2021/03/01 09:19:56;;;;;;;12.48;8.00;;;;;;;;;;5058911;28;20025;-78
2021/03/01 09:22:21;;;;;;;12.65;7.25;;;;;;;;;;5065207;28;20428;-78
2021/03/01 09:24:48;;;;;;;16.05;7.93;;;;;;;;;;5066339;28;20032;-77
2021/03/01 09:27:14;;;;;;;14.27;8.15;;;;;;;;;;5057799;28;20751;-78
2021/03/01 09:29:40;;;;;;;13.55;7.10;;;;;;;;;;5058779;28;20030;-78
2021/03/01 09:32:06;;;;;;;12.43;7.60;;;;;;;;;;5052465;28;20132;-79
2021/03/01 09:34:32;;;;;;;13.30;7.43;;;;;;;;;;5067480;28;20020;-79
2021/03/01 09:36:57;;;;;;;11.68;7.00;;;;;;;;;;5075857;28;20023;-78
2021/03/01 09:39:27;;;;;;;10.88;7.22;;;;;;;;;;5057969;28;20044;-79
2021/03/01 09:41:56;;;;;;;11.48;7.30;;;;;;;;;;5064034;28;20036;-78
2021/03/01 09:44:26;;;;;;;13.60;7.30;;;;;;;;;;5056867;28;20757;-78
2021/03/01 09:46:54;;;;;;;11.50;6.38;;;;;;;;;;5062055;28;20028;-78
2021/03/01 09:49:19;;;;;;;11.43;6.70;;;;;;;;;;5060760;28;20032;-78
2021/03/01 09:51:45;;;;;;;10.05;6.22;;;;;;;;;;5058216;28;20035;-79
2021/03/01 09:54:11;;;;;;;11.15;6.40;;;;;;;;;;5055346;28;20036;-79
2021/03/01 09:56:37;;;;;;;9.80;6.43;;;;;;;;;;5058255;28;20025;-79
2021/03/01 09:59:03;;;;;;;9.93;6.35;;;;;;;;;;5053400;28;20048;-79
2021/03/01 10:01:29;;;;;;;9.82;5.75;;;;;;;;;;5051989;28;20044;-79
2021/03/01 10:03:54;;;;;;;11.40;7.47;;;;;;;;;;5043855;28;20025;-78
2021/03/01 10:06:34;;;;;;;9.82;6.25;;;;;;;;;;5045693;28;20113;-80
2021/03/01 10:09:03;;;;;;;13.00;6.43;;;;;;;;;;5042166;28;20032;-81
2021/03/01 10:11:28;;;;;;;9.40;5.88;;;;;;;;;;5042152;28;20063;-77
2021/03/01 10:14:01;;;;;;;10.88;6.07;;;;;;;;;;5037906;28;20021;-81
2021/03/01 10:16:28;;;;;;;9.50;6.25;;;;;;;;;;5049605;28;20485;-79
2021/03/01 10:18:53;;;;;;;10.13;6.43;;;;;;;;;;5037205;28;20029;-80
2021/03/01 10:21:30;;;;;;;8.85;5.43;;;;;;;;;;5038741;28;20623;-78
2021/03/01 10:24:00;;;;;;;8.40;5.13;;;;;;;;;;5042073;28;20433;-80
2021/03/01 10:26:26;;;;;;;9.20;5.77;;;;;;;;;;5036894;28;20033;-79
2021/03/01 10:28:53;;;;;;;11.35;5.53;;;;;;;;;;5039575;28;20104;-79
2021/03/01 10:31:20;;;;;;;8.70;5.07;;;;;;;;;;5050427;28;20036;-79
2021/03/01 10:34:00;;;;;;;7.68;4.68;;;;;;;;;;5044368;28;20178;-79
2021/03/01 10:36:32;;;;;;;7.28;4.75;;;;;;;;;;5043267;28;20473;-79
2021/03/01 10:38:58;;;;;;;7.32;4.68;;;;;;;;;;5044909;28;20025;-79
2021/03/01 10:41:25;;;;;;;7.20;4.95;;;;;;;;;;5055582;28;20091;-83
2021/03/01 10:44:04;;;;;;;9.90;5.45;;;;;;;;;;5051421;28;20024;-83
2021/03/01 10:46:39;;;;;;;7.40;4.28;;;;;;;;;;5044029;28;20481;-81
2021/03/01 10:49:23;;;;;;;8.43;5.25;;;;;;;;;;5050642;28;20064;-85
2021/03/01 10:51:49;;;;;;;8.15;4.50;;;;;;;;;;5056545;28;20029;-84
2021/03/01 10:54:15;;;;;;;7.75;4.22;;;;;;;;;;5044580;28;20021;-79
2021/03/01 10:56:41;;;;;;;7.32;4.05;;;;;;;;;;5047071;28;20043;-80
2021/03/01 10:59:07;;;;;;;6.85;3.95;;;;;;;;;;5043676;28;20060;-81
2021/03/01 11:01:33;;;;;;;7.55;4.20;;;;;;;;;;5038485;28;20036;-78
2021/03/01 11:03:59;;;;;;;7.97;4.05;;;;;;;;;;5036222;28;20025;-80
2021/03/01 11:06:25;;;;;;;6.88;3.83;;;;;;;;;;5040031;28;20120;-80
2021/03/01 11:08:51;;;;;;;7.60;4.20;;;;;;;;;;5036653;28;20056;-80
2021/03/01 11:11:16;;;;;;;10.32;4.22;;;;;;;;;;5039879;28;20031;-79
2021/03/01 11:13:42;;;;;;;7.25;4.07;;;;;;;;;;5033971;28;20022;-81
2021/03/01 11:16:08;;;;;;;7.15;4.53;;;;;;;;;;5033960;28;20118;-80
2021/03/01 11:18:33;;;;;;;6.63;4.05;;;;;;;;;;5037071;28;20135;-80
2021/03/01 11:20:59;;;;;;;8.05;4.50;;;;;;;;;;5035766;28;20126;-80
2021/03/01 11:23:24;;;;;;;7.45;4.57;;;;;;;;;;5042137;28;20086;-78
2021/03/01 11:25:50;;;;;;;7.00;4.78;;;;;;;;;;5047632;28;20051;-81
2021/03/01 11:28:16;;;;;;;7.18;3.90;;;;;;;;;;5045735;28;20112;-78
2021/03/01 11:30:41;;;;;;;8.52;4.15;;;;;;;;;;5047003;28;20071;-79
2021/03/01 11:33:07;;;;;;;6.72;4.55;;;;;;;;;;5039725;28;20037;-79
2021/03/01 11:35:34;;;;;;;6.88;3.63;;;;;;;;;;5041611;28;20060;-79
2021/03/01 11:37:59;;;;;;;5.22;3.42;;;;;;;;;;5035862;28;20025;-80
2021/03/01 11:40:25;;;;;;;4.97;3.22;;;;;;;;;;5038442;28;20033;-80
2021/03/01 11:42:51;;;;;;;6.22;3.80;;;;;;;;;;5033781;28;20038;-80
2021/03/01 11:45:16;;;;;;;6.68;3.95;;;;;;;;;;5036007;28;20029;-81
2021/03/01 11:47:42;;;;;;;6.65;3.83;;;;;;;;;;5045690;28;20095;-81
2021/03/01 11:50:08;;;;;;;6.32;4.32;;;;;;;;;;5040353;28;20016;-80
2021/03/01 11:52:34;;;;;;;6.10;3.97;;;;;;;;;;5048930;28;20070;-80
2021/03/01 11:54:59;;;;;;;7.70;4.18;;;;;;;;;;5043011;28;20040;-81
2021/03/01 11:57:28;;;;;;;6.88;4.20;;;;;;;;;;5033333;28;20025;-80
2021/03/01 11:59:54;;;;;;;8.85;4.72;;;;;;;;;;5032661;28;20061;-79
2021/03/01 12:02:19;;;;;;;7.20;4.20;;;;;;;;;;5048652;23;20123;-83
2021/03/01 12:04:45;;;;;;;6.88;4.00;;;;;;;;;;5028066;28;20081;-83
2021/03/01 12:07:11;;;;;;;5.82;3.70;;;;;;;;;;5030315;28;20021;-84
2021/03/01 12:09:37;;;;;;;8.23;4.80;;;;;;;;;;5031049;28;20045;-83
2021/03/01 12:12:03;;;;;;;9.13;5.05;;;;;;;;;;5033726;28;20021;-83
2021/03/01 12:16:49;;;;;;;10.90;5.43;;;;;;;;;;5103027;27;20343;-87
2021/03/01 12:19:14;;;;;;;9.10;5.03;;;;;;;;;;5112906;28;20038;-86
2021/03/01 12:21:40;;;;;;;8.55;5.30;;;;;;;;;;5108963;28;20603;-87
2021/03/01 12:24:06;;;;;;;11.65;5.32;;;;;;;;;;5101313;28;20027;-87
2021/03/01 12:26:31;;;;;;;9.45;5.75;;;;;;;;;;5096352;28;20036;-87
2021/03/01 12:28:59;;;;;;;9.95;5.32;;;;;;;;;;5092517;28;20031;-87
2021/03/01 12:31:25;;;;;;;13.02;6.45;;;;;;;;;;5102375;28;20733;-87
2021/03/01 12:33:51;;;;;;;10.13;5.97;;;;;;;;;;5097541;28;20058;-87
2021/03/01 12:36:16;;;;;;;8.85;5.75;;;;;;;;;;5100486;28;20024;-87
2021/03/01 12:38:42;;;;;;;9.88;6.28;;;;;;;;;;5101520;28;20473;-86
2021/03/01 12:41:08;;;;;;;11.90;6.38;;;;;;;;;;5099083;28;20330;-87
2021/03/01 12:43:33;;;;;;;12.05;6.72;;;;;;;;;;5099500;28;20020;-86
2021/03/01 12:45:59;;;;;;;12.73;6.55;;;;;;;;;;5107861;27;20028;-87
2021/03/01 12:48:25;;;;;;;12.48;6.60;;;;;;;;;;5094811;28;20054;-88
2021/03/01 12:50:54;;;;;;;10.27;6.40;;;;;;;;;;5096902;28;20034;-87
2021/03/01 12:53:20;;;;;;;10.75;6.20;;;;;;;;;;5093271;28;20059;-84
2021/03/01 12:55:45;;;;;;;10.07;6.47;;;;;;;;;;5093387;28;20024;-87
2021/03/01 13:00:29;;;;;;;9.00;5.78;;;;;;;;;;5057058;28;20365;-86
2021/03/01 13:02:56;;;;;;;13.68;6.28;;;;;;;;;;5056312;28;20032;-87
2021/03/01 13:05:22;;;;;;;10.38;6.43;;;;;;;;;;5054020;28;20044;-88
2021/03/01 13:07:48;;;;;;;8.95;6.05;;;;;;;;;;5054551;28;20457;-87
2021/03/01 13:10:14;;;;;;;11.55;7.05;;;;;;;;;;5050416;28;20074;-87
2021/03/01 13:12:40;;;;;;;9.65;6.43;;;;;;;;;;5056756;28;20119;-87
2021/03/01 13:15:09;;;;;;;11.15;6.72;;;;;;;;;;5053892;28;20025;-87
2021/03/01 13:17:34;;;;;;;11.90;6.63;;;;;;;;;;5054566;28;20072;-87
2021/03/01 13:20:03;;;;;;;13.65;8.07;;;;;;;;;;5051395;28;20025;-86
2021/03/01 13:22:29;;;;;;;13.88;6.72;;;;;;;;;;5054216;28;20071;-86
2021/03/01 13:24:55;;;;;;;13.18;7.13;;;;;;;;;;5049116;28;20777;-87
2021/03/01 13:27:21;;;;;;;13.25;7.40;;;;;;;;;;5051577;28;20052;-85
2021/03/01 13:29:46;;;;;;;13.75;7.32;;;;;;;;;;5045879;28;20075;-88
2021/03/01 13:32:12;;;;;;;12.13;7.50;;;;;;;;;;5050086;28;20256;-87
2021/03/01 13:34:38;;;;;;;13.80;8.13;;;;;;;;;;5048755;28;20036;-87
2021/03/01 13:37:04;;;;;;;11.90;6.93;;;;;;;;;;5047364;28;20029;-87
2021/03/01 13:39:31;;;;;;;11.95;7.30;;;;;;;;;;5049196;28;20029;-86
2021/03/01 13:41:57;;;;;;;11.27;6.85;;;;;;;;;;5058111;28;20035;-86
2021/03/01 13:44:23;;;;;;;14.05;7.07;;;;;;;;;;5059151;28;20017;-88
2021/03/01 13:46:48;;;;;;;11.48;7.38;;;;;;;;;;5052916;28;20079;-88
2021/03/01 13:49:14;;;;;;;10.85;6.70;;;;;;;;;;5054175;28;20028;-88
2021/03/01 13:51:40;;;;;;;12.18;7.22;;;;;;;;;;5054112;28;20111;-87
2021/03/01 13:54:05;;;;;;;12.10;7.32;;;;;;;;;;5054762;28;20535;-86
2021/03/01 13:56:31;;;;;;;11.05;7.03;;;;;;;;;;5050305;28;20094;-88
2021/03/01 13:58:57;;;;;;;12.90;7.90;;;;;;;;;;5059405;28;20631;-88
2021/03/01 14:01:22;;;;;;;13.60;7.70;;;;;;;;;;5057968;28;20478;-88
2021/03/01 14:03:48;;;;;;;14.27;7.65;;;;;;;;;;5057570;28;20020;-88
2021/03/01 14:06:14;;;;;;;15.52;7.68;;;;;;;;;;5054257;28;20033;-86
2021/03/01 14:08:41;;;;;;;16.33;7.38;;;;;;;;;;5057811;28;20415;-87
2021/03/01 14:11:07;;;;;;;11.77;6.97;;;;;;;;;;5050383;28;20030;-87
2021/03/01 14:13:33;;;;;;;14.95;8.07;;;;;;;;;;5040321;28;20059;-87
2021/03/01 14:15:58;;;;;;;12.57;7.80;;;;;;;;;;5042893;28;20029;-87
2021/03/01 14:18:24;;;;;;;13.07;7.18;;;;;;;;;;5036804;28;20401;-87
2021/03/01 14:20:50;;;;;;;12.20;7.03;;;;;;;;;;5042243;28;20031;-87
2021/03/01 14:23:15;;;;;;;11.52;6.80;;;;;;;;;;5041040;28;20021;-87
2021/03/01 14:25:41;;;;;;;12.88;8.40;;;;;;;;;;5044080;28;20542;-87
2021/03/01 14:28:07;;;;;;;11.77;7.15;;;;;;;;;;5042250;28;20052;-87
2021/03/01 14:30:32;;;;;;;13.18;8.57;;;;;;;;;;5042532;28;20321;-86
2021/03/01 14:32:58;;;;;;;14.00;8.15;;;;;;;;;;5039264;28;20115;-88
2021/03/01 14:35:24;;;;;;;15.73;7.68;;;;;;;;;;5042522;28;20037;-88
2021/03/01 14:37:49;;;;;;;13.20;7.00;;;;;;;;;;5036154;28;20025;-87
2021/03/01 14:40:15;;;;;;;10.27;7.05;;;;;;;;;;5035977;28;20022;-88
2021/03/01 14:42:41;;;;;;;18.00;8.38;;;;;;;;;;5044600;28;20060;-86
2021/03/01 14:45:07;;;;;;;10.80;6.88;;;;;;;;;;5036217;28;20060;-86
2021/03/01 14:47:33;;;;;;;12.45;6.43;;;;;;;;;;5043756;28;20388;-86
2021/03/01 14:50:00;;;;;;;14.77;8.65;;;;;;;;;;5042705;28;20020;-85
2021/03/01 14:52:26;;;;;;;13.43;7.90;;;;;;;;;;5039920;28;20032;-87
2021/03/01 14:54:52;;;;;;;13.52;7.90;;;;;;;;;;5045281;28;20396;-87
2021/03/01 14:57:17;;;;;;;12.02;6.50;;;;;;;;;;5037473;28;20029;-88
2021/03/01 14:59:43;;;;;;;12.00;8.15;;;;;;;;;;5040330;28;20021;-88
2021/03/01 15:02:09;;;;;;;11.98;7.78;;;;;;;;;;5029678;28;20029;-87
2021/03/01 15:04:34;;;;;;;10.95;6.80;;;;;;;;;;5042712;28;20027;-88
2021/03/01 15:07:00;;;;;;;12.23;7.38;;;;;;;;;;5031901;28;20063;-87
2021/03/01 15:09:26;;;;;;;11.60;7.88;;;;;;;;;;5041966;28;20025;-87
2021/03/01 15:11:51;;;;;;;13.27;7.00;;;;;;;;;;5044557;28;20025;-85
2021/03/01 15:14:18;;;;;;;12.80;6.95;;;;;;;;;;5047259;28;20096;-87
2021/03/01 15:16:44;;;;;;;14.77;7.82;;;;;;;;;;5045216;28;20535;-88
2021/03/01 15:19:09;;;;;;;14.13;7.25;;;;;;;;;;5046445;28;20029;-87
2021/03/01 15:21:35;;;;;;;13.02;7.65;;;;;;;;;;5043112;28;20035;-87
2021/03/01 15:26:19;;;;;;;14.35;6.63;;;;;;;;;;5067552;28;20348;-87
2021/03/01 15:28:44;;;;;;;12.27;7.38;;;;;;;;;;5060422;28;20031;-87
2021/03/01 15:31:10;;;;;;;14.02;6.93;;;;;;;;;;5050488;28;20108;-86
2021/03/01 15:33:36;;;;;;;15.43;8.45;;;;;;;;;;5045638;28;20112;-87
2021/03/01 15:38:19;;;;;;;13.23;7.40;;;;;;;;;;5120386;27;20364;-87
2021/03/01 15:40:46;;;;;;;14.43;7.40;;;;;;;;;;5101753;28;20449;-87
2021/03/01 15:43:12;;;;;;;14.88;7.80;;;;;;;;;;5100911;28;20055;-87
2021/03/01 15:45:38;;;;;;;11.45;7.13;;;;;;;;;;5093701;28;20016;-87
2021/03/01 15:48:04;;;;;;;11.80;7.32;;;;;;;;;;5084402;28;20020;-87
2021/03/01 15:50:29;;;;;;;13.55;6.78;;;;;;;;;;5089769;28;20032;-87
2021/03/01 15:52:55;;;;;;;19.15;7.85;;;;;;;;;;5101530;28;20386;-87
2021/03/01 15:55:21;;;;;;;12.95;8.63;;;;;;;;;;5097930;28;20049;-89
2021/03/01 15:57:46;;;;;;;15.32;8.48;;;;;;;;;;5099279;28;20012;-86
2021/03/01 16:00:12;;;;;;;12.88;8.05;;;;;;;;;;5097361;28;20115;-87
2021/03/01 16:02:38;;;;;;;12.80;7.80;;;;;;;;;;5091021;27;20080;-87
2021/03/01 16:05:04;;;;;;;12.65;7.13;;;;;;;;;;5095284;28;20510;-87
2021/03/01 16:07:29;;;;;;;10.82;6.63;;;;;;;;;;5092277;28;20023;-87
2021/03/01 16:09:55;;;;;;;11.90;6.70;;;;;;;;;;5097576;28;20076;-85
2021/03/01 16:12:21;;;;;;;14.93;6.93;;;;;;;;;;5093325;28;19915;-87
2021/03/01 16:14:47;;;;;;;10.10;6.35;;;;;;;;;;5090646;28;20019;-87
2021/03/01 16:17:12;;;;;;;11.70;6.97;;;;;;;;;;5095938;28;20016;-87
2021/03/01 16:19:38;;;;;;;12.77;7.85;;;;;;;;;;5098892;28;20016;-87
2021/03/01 16:22:04;;;;;;;14.35;7.88;;;;;;;;;;5096434;28;20091;-87
2021/03/01 16:24:33;;;;;;;14.30;8.18;;;;;;;;;;5092021;28;20027;-88
2021/03/01 16:26:58;;;;;;;15.85;7.60;;;;;;;;;;5099265;28;20036;-87
2021/03/01 16:29:24;;;;;;;11.07;6.25;;;;;;;;;;5092714;28;20038;-84
2021/03/01 16:31:50;;;;;;;12.05;6.80;;;;;;;;;;5098851;28;20035;-87
2021/03/01 16:34:15;;;;;;;12.48;7.82;;;;;;;;;;5095359;28;20121;-87
2021/03/01 16:36:41;;;;;;;14.80;10.50;;;;;;;;;;5090539;28;20107;-87
2021/03/01 16:39:09;;;;;;;15.45;9.07;;;;;;;;;;5096115;28;20027;-87
2021/03/01 16:41:35;;;;;;;12.75;8.20;;;;;;;;;;5076803;28;20035;-87
2021/03/01 16:44:01;;;;;;;11.68;7.80;;;;;;;;;;5099824;28;20023;-86
2021/03/01 16:46:28;;;;;;;12.70;7.80;;;;;;;;;;5091969;28;20521;-87
2021/03/01 16:48:58;;;;;;;11.57;7.22;;;;;;;;;;5082092;28;20048;-87
2021/03/01 16:51:24;;;;;;;13.20;7.68;;;;;;;;;;5084450;28;20564;-86
2021/03/01 16:53:50;;;;;;;16.88;9.80;;;;;;;;;;5084875;28;20028;-86
2021/03/01 16:56:17;;;;;;;29.52;18.00;;;;;;;;;;5077846;28;20111;-88
2021/03/01 16:58:45;;;;;;;38.78;22.05;;;;;;;;;;5088281;28;20052;-87
2021/03/01 17:01:11;;;;;;;22.23;10.30;;;;;;;;;;5073067;28;20017;-86
2021/03/01 17:03:37;;;;;;;13.23;7.80;;;;;;;;;;5088904;28;20027;-87
2021/03/01 17:06:04;;;;;;;15.73;8.98;;;;;;;;;;5090741;28;20020;-84
2021/03/01 17:08:33;;;;;;;11.63;8.23;;;;;;;;;;5103506;28;20028;-85
2021/03/01 17:11:00;;;;;;;11.93;7.75;;;;;;;;;;5109071;28;20019;-84
2021/03/01 17:13:31;;;;;;;14.20;8.45;;;;;;;;;;5105528;28;20015;-84
2021/03/01 17:15:57;;;;;;;12.48;7.45;;;;;;;;;;5104232;28;20012;-84
2021/03/01 17:18:23;;;;;;;11.77;7.25;;;;;;;;;;5084226;28;20036;-87
2021/03/01 17:20:52;;;;;;;12.15;7.00;;;;;;;;;;5084086;28;20058;-87
2021/03/01 17:23:24;;;;;;;15.55;8.68;;;;;;;;;;5077303;28;20062;-88
2021/03/01 17:25:50;;;;;;;19.73;7.72;;;;;;;;;;5070160;28;20048;-87
2021/03/01 17:28:20;;;;;;;16.15;7.63;;;;;;;;;;5074832;28;20028;-86
2021/03/01 17:30:50;;;;;;;19.10;11.43;;;;;;;;;;5065279;28;20031;-86
2021/03/01 17:33:16;;;;;;;11.35;8.13;;;;;;;;;;5075751;28;20355;-86
2021/03/01 17:35:46;;;;;;;11.65;5.90;;;;;;;;;;5068763;28;20028;-85
2021/03/01 17:40:30;;;;;;;15.07;6.75;;;;;;;;;;5099044;27;20748;-78
2021/03/01 17:42:56;;;;;;;10.55;5.75;;;;;;;;;;5105451;28;20031;-79
2021/03/01 17:45:21;;;;;;;9.55;5.38;;;;;;;;;;5107443;28;20032;-78
2021/03/01 17:47:55;;;;;;;9.05;5.38;;;;;;;;;;5101162;28;20114;-81
2021/03/01 17:52:38;;;;;;;9.50;5.63;;;;;;;;;;5056326;28;20891;-77
2021/03/01 17:55:07;;;;;;;11.70;5.35;;;;;;;;;;5059188;28;20048;-77
2021/03/01 17:57:52;;;;;;;8.43;5.28;;;;;;;;;;5060210;28;20056;-78
2021/03/01 18:00:19;;;;;;;8.13;5.55;;;;;;;;;;5059623;28;20504;-78
2021/03/01 18:02:48;;;;;;;9.80;5.95;;;;;;;;;;5060027;28;20027;-79
2021/03/01 18:05:15;;;;;;;9.02;5.43;;;;;;;;;;5071430;28;20064;-79
2021/03/01 18:07:48;;;;;;;9.60;5.53;;;;;;;;;;5071027;28;20021;-79
2021/03/01 18:10:15;;;;;;;9.65;5.00;;;;;;;;;;5072508;28;20048;-80
2021/03/01 18:12:41;;;;;;;9.98;5.78;;;;;;;;;;5073608;28;20029;-79
2021/03/01 18:15:07;;;;;;;8.93;4.90;;;;;;;;;;5070841;28;20032;-82
2021/03/01 18:17:32;;;;;;;10.45;5.45;;;;;;;;;;5078300;28;20032;-79
2021/03/01 18:19:58;;;;;;;7.78;4.80;;;;;;;;;;5057752;28;20017;-83
2021/03/01 18:22:25;;;;;;;9.73;4.82;;;;;;;;;;5052039;28;20477;-82
2021/03/01 18:24:52;;;;;;;10.02;5.68;;;;;;;;;;5050286;28;20067;-83
2021/03/01 18:27:22;;;;;;;10.55;5.57;;;;;;;;;;5056773;28;20060;-83
2021/03/01 18:29:49;;;;;;;9.02;5.30;;;;;;;;;;5057264;28;20050;-83
2021/03/01 18:32:18;;;;;;;8.75;5.40;;;;;;;;;;5059968;28;20020;-83
2021/03/01 18:34:52;;;;;;;10.43;5.97;;;;;;;;;;5059374;28;20064;-84
2021/03/01 18:37:20;;;;;;;9.20;5.55;;;;;;;;;;5060248;28;20018;-82
2021/03/01 18:39:52;;;;;;;10.07;5.70;;;;;;;;;;5061803;28;20052;-82
2021/03/01 18:42:19;;;;;;;9.75;6.55;;;;;;;;;;5061775;28;20086;-82
2021/03/01 18:44:45;;;;;;;12.60;6.50;;;;;;;;;;5054958;28;20025;-82
2021/03/01 18:47:11;;;;;;;11.57;5.97;;;;;;;;;;5049859;28;21018;-82
2021/03/01 18:49:37;;;;;;;11.00;6.72;;;;;;;;;;5053804;28;20036;-81
2021/03/01 18:52:03;;;;;;;13.10;7.35;;;;;;;;;;5057934;28;20021;-83
2021/03/01 18:54:29;;;;;;;9.52;6.25;;;;;;;;;;5060707;28;20029;-83
2021/03/01 18:56:54;;;;;;;9.73;6.70;;;;;;;;;;5057556;28;20606;-82
2021/03/01 18:59:20;;;;;;;10.90;5.65;;;;;;;;;;5060011;28;20020;-81
2021/03/01 19:01:46;;;;;;;9.40;5.82;;;;;;;;;;5054404;28;20068;-82
2021/03/01 19:04:12;;;;;;;8.82;5.80;;;;;;;;;;5035336;28;20033;-82
2021/03/01 19:06:37;;;;;;;8.95;5.50;;;;;;;;;;5039997;28;20087;-83
2021/03/01 19:09:04;;;;;;;9.23;5.88;;;;;;;;;;5040738;28;20032;-82
2021/03/01 19:11:29;;;;;;;10.38;6.30;;;;;;;;;;5045003;28;20063;-81
2021/03/01 19:13:55;;;;;;;8.77;5.72;;;;;;;;;;5030856;28;20037;-81
2021/03/01 19:16:21;;;;;;;8.95;5.60;;;;;;;;;;5036870;28;20017;-82
2021/03/01 19:18:46;;;;;;;11.85;5.95;;;;;;;;;;5044897;28;20112;-82
2021/03/01 19:21:12;;;;;;;9.63;5.57;;;;;;;;;;5041481;28;20503;-81
2021/03/01 19:23:38;;;;;;;14.00;5.03;;;;;;;;;;5043099;28;20033;-83
2021/03/01 19:26:04;;;;;;;11.23;5.80;;;;;;;;;;5038207;28;20089;-82
2021/03/01 19:28:30;;;;;;;11.93;5.75;;;;;;;;;;5036923;28;20032;-82
2021/03/01 19:30:55;;;;;;;15.35;7.28;;;;;;;;;;5038381;28;20047;-81
2021/03/01 19:33:21;;;;;;;14.45;5.68;;;;;;;;;;5030707;28;20029;-82
2021/03/01 19:35:47;;;;;;;10.88;6.57;;;;;;;;;;5036224;28;20024;-82
2021/03/01 19:38:14;;;;;;;11.95;6.75;;;;;;;;;;5044532;28;20035;-82
2021/03/01 19:40:39;;;;;;;15.45;7.28;;;;;;;;;;5045763;28;20088;-82
2021/03/01 19:43:05;;;;;;;11.63;6.85;;;;;;;;;;5046430;28;20024;-83
2021/03/01 19:45:31;;;;;;;9.20;6.53;;;;;;;;;;5046529;28;20029;-83
2021/03/01 19:47:57;;;;;;;14.82;7.15;;;;;;;;;;5044656;28;20405;-82
2021/03/01 19:50:23;;;;;;;12.05;7.15;;;;;;;;;;5044072;28;20041;-82
2021/03/01 19:52:48;;;;;;;10.85;6.25;;;;;;;;;;5037330;28;20033;-82
2021/03/01 19:55:14;;;;;;;12.75;7.53;;;;;;;;;;5038430;28;20540;-82
2021/03/01 19:57:40;;;;;;;12.68;6.93;;;;;;;;;;5041468;28;20025;-82
2021/03/01 20:00:07;;;;;;;13.15;7.47;;;;;;;;;;5036765;28;20021;-82
2021/03/01 20:02:32;;;;;;;17.23;7.78;;;;;;;;;;5032674;28;20064;-82
2021/03/01 20:04:58;;;;;;;12.93;7.50;;;;;;;;;;5033377;28;20093;-81
2021/03/01 20:07:24;;;;;;;14.20;7.15;;;;;;;;;;5037102;28;20040;-82
2021/03/01 20:09:49;;;;;;;12.02;6.53;;;;;;;;;;5041410;28;20124;-82
2021/03/01 20:12:15;;;;;;;10.90;6.13;;;;;;;;;;5037580;28;20092;-82
2021/03/01 20:14:41;;;;;;;11.95;7.43;;;;;;;;;;5041893;28;20055;-82
2021/03/01 20:17:18;;;;;;;10.15;5.72;;;;;;;;;;5042359;28;20503;-82
2021/03/01 20:19:44;;;;;;;10.43;6.32;;;;;;;;;;5042802;28;20048;-81
2021/03/01 20:22:11;;;;;;;12.35;7.55;;;;;;;;;;5034677;28;20029;-82
2021/03/01 20:24:39;;;;;;;18.33;8.57;;;;;;;;;;5035708;28;20036;-82
2021/03/01 20:27:06;;;;;;;17.63;10.85;;;;;;;;;;5041521;28;20039;-81
2021/03/01 20:29:34;;;;;;;20.15;11.70;;;;;;;;;;5040860;28;20032;-82
2021/03/01 20:32:01;;;;;;;17.10;10.55;;;;;;;;;;5035211;28;20036;-82
2021/03/01 20:34:27;;;;;;;14.45;8.40;;;;;;;;;;5041468;28;20034;-82
2021/03/01 20:36:53;;;;;;;15.10;9.40;;;;;;;;;;5045235;28;20074;-82
2021/03/01 20:39:18;;;;;;;21.85;12.23;;;;;;;;;;5047308;28;20040;-82
2021/03/01 20:41:44;;;;;;;21.83;11.93;;;;;;;;;;5041413;28;20035;-82
2021/03/01 20:44:10;;;;;;;19.42;11.25;;;;;;;;;;5042175;28;20116;-82
2021/03/01 20:46:35;;;;;;;20.40;11.82;;;;;;;;;;5041829;28;20056;-82